This is the latest recevied weather packets stored in our database for station/object WA4OPQ-3. If no packets are shown the sender has not sent any weather packets the latest 1 day(s).
| Time | Temp. | Humidity | Pressure | Rain* | Wind** | Luminosity | Snow |
|---|---|---|---|---|---|---|---|
| 1778054093 | 19.44° C | 98% | 1005.8 hPa | 1.52 mm | - | 0 W/m² | - |
| 1778053488 | 19.44° C | 96% | 1005.9 hPa | 1.02 mm | - | 0 W/m² | - |
| 1778052883 | 20° C | 94% | 1006.1 hPa | 0.51 mm | - | 0 W/m² | - |
| 1778052278 | 21.11° C | 88% | 1005.9 hPa | 0 mm | - | 0 W/m² | - |
| 1778051673 | 21.11° C | 86% | 1006.5 hPa | 0 mm | - | 0 W/m² | - |
| 1778049858 | 21.11° C | 82% | 1006.1 hPa | 0 mm | - | 0 W/m² | - |
| 1778049253 | 21.67° C | 81% | 1006.3 hPa | 0 mm | - | 0 W/m² | - |
| 1778047438 | 21.11° C | 81% | 1006 hPa | 0 mm | - | 0 W/m² | - |
| 1778046833 | 21.11° C | 81% | 1006.1 hPa | 0 mm | - | 0 W/m² | - |
| 1778046229 | 21.67° C | 80% | 1006.4 hPa | 0 mm | - | 0 W/m² | - |
| 1778045624 | 21.11° C | 80% | 1006.3 hPa | 0 mm | - | 0 W/m² | - |
| 1778045019 | 20.56° C | 81% | 1006.4 hPa | 0 mm | - | 0 W/m² | - |
| 1778044413 | 21.11° C | 80% | 1006.9 hPa | 0 mm | - | 0 W/m² | - |
| 1778043808 | 21.11° C | 80% | 1006.9 hPa | 0 mm | - | 0 W/m² | - |
| 1778043203 | 21.11° C | 80% | 1006.8 hPa | 0 mm | - | 0 W/m² | - |
| 1778042598 | 20.56° C | 80% | 1006.8 hPa | 0 mm | - | 0 W/m² | - |
| 1778041993 | 20.56° C | 81% | 1006.9 hPa | 0 mm | - | 0 W/m² | - |
| 1778041388 | 20.56° C | 80% | 1007.1 hPa | 0 mm | - | 0 W/m² | - |
| 1778040781 | 20.56° C | 80% | 1006.9 hPa | 0 mm | - | 0 W/m² | - |
| 1778039573 | 20.56° C | 81% | 1007.2 hPa | 0 mm | - | 0 W/m² | - |
| 1778038969 | 20° C | 81% | 1007.1 hPa | 0 mm | - | 0 W/m² | - |
| 1778038362 | 20.56° C | 80% | 1007.6 hPa | 0 mm | - | 0 W/m² | - |
| 1778037756 | 20.56° C | 81% | 1007.5 hPa | 0 mm | - | 0 W/m² | - |
| 1778037152 | 20.56° C | 80% | 1007.6 hPa | 0 mm | - | 0 W/m² | - |
| 1778036547 | 20.56° C | 80% | 1007.5 hPa | 0 mm | - | 0 W/m² | - |
* Rain latest hour (hover to see other rain measurements)
** Current wind speed in m/s (hover to see current wind gust speed)